createdAt,value
2018-04-02T00:01:36.176Z,47.23
2018-04-02T00:02:36.112Z,47.13
2018-04-02T00:04:28.840Z,47.04
2018-04-02T00:05:28.773Z,46.94
2018-04-02T00:07:21.529Z,47.13
2018-04-02T00:08:21.444Z,47.13
2018-04-02T00:10:14.198Z,47.32
2018-04-02T00:11:14.117Z,47.04
2018-04-02T00:13:06.899Z,47.42
2018-04-02T00:14:06.827Z,47.80
2018-04-02T00:15:59.695Z,47.13
2018-04-02T00:16:59.615Z,47.32
2018-04-02T00:18:52.385Z,47.80
2018-04-02T00:19:52.312Z,47.70
2018-04-02T00:21:45.081Z,48.06
2018-04-02T00:22:44.984Z,47.96
2018-04-02T00:24:37.751Z,48.46
2018-04-02T00:25:37.682Z,48.15
2018-04-02T00:27:30.439Z,48.53
2018-04-02T00:28:30.362Z,48.53
2018-04-02T00:30:23.206Z,48.53
2018-04-02T00:31:23.050Z,48.25
2018-04-02T00:33:15.824Z,48.91
2018-04-02T00:34:15.758Z,48.63
2018-04-02T00:36:08.581Z,49.19
2018-04-02T00:37:08.503Z,49.38
2018-04-02T00:39:01.322Z,49.95
2018-04-02T00:40:01.246Z,49.66
2018-04-02T00:41:54.087Z,49.76
2018-04-02T00:42:54.006Z,50.04
2018-04-02T00:44:46.833Z,50.42
2018-04-02T00:45:46.763Z,50.33
2018-04-02T00:47:39.581Z,50.42
2018-04-02T00:48:39.500Z,50.42
2018-04-02T00:50:32.336Z,50.71
2018-04-02T00:51:32.254Z,51.46
2018-04-02T00:53:24.999Z,51.37
2018-04-02T00:54:24.929Z,51.93
2018-04-02T00:56:17.730Z,52.03
2018-04-02T00:57:17.651Z,52.22
2018-04-02T00:59:10.460Z,52.12
2018-04-02T01:00:10.392Z,52.22
2018-04-02T01:02:03.223Z,51.65
2018-04-02T01:03:03.147Z,51.37
2018-04-02T01:04:55.958Z,50.90
2018-04-02T01:05:55.890Z,50.99
2018-04-02T01:07:48.654Z,50.71
2018-04-02T01:08:48.574Z,50.42
2018-04-02T01:10:41.406Z,50.61
2018-04-02T01:11:41.325Z,50.33
2018-04-02T01:13:34.093Z,49.85
2018-04-02T01:14:34.004Z,49.57
2018-04-02T01:16:26.767Z,49.57
2018-04-02T01:17:26.688Z,49.38
2018-04-02T01:19:19.501Z,49.66
2018-04-02T01:20:19.437Z,49.66
2018-04-02T01:22:12.213Z,49.57
2018-04-02T01:23:12.100Z,49.85
2018-04-02T01:25:04.898Z,49.85
2018-04-02T01:26:04.836Z,50.04
2018-04-02T01:27:57.583Z,49.95
2018-04-02T01:28:57.498Z,49.95
2018-04-02T01:30:50.279Z,49.76
2018-04-02T01:31:50.251Z,50.04
2018-04-02T01:33:42.942Z,50.52
2018-04-02T01:34:42.884Z,50.42
2018-04-02T01:36:35.665Z,50.52
2018-04-02T01:37:35.566Z,50.23
2018-04-02T01:39:28.307Z,50.42
2018-04-02T01:40:28.269Z,50.61
2018-04-02T01:42:21.012Z,50.33
2018-04-02T01:43:20.949Z,50.52
2018-04-02T01:45:13.679Z,50.61
2018-04-02T01:46:13.608Z,50.99
2018-04-02T01:48:06.425Z,50.61
2018-04-02T01:49:06.346Z,50.33
2018-04-02T01:50:59.123Z,49.95
2018-04-02T01:51:59.023Z,49.85
2018-04-02T01:53:51.790Z,49.85
2018-04-02T01:54:51.721Z,49.76
2018-04-02T01:56:44.481Z,50.33
2018-04-02T01:57:44.401Z,50.33
2018-04-02T01:59:37.150Z,49.95
2018-04-02T02:00:37.073Z,50.04
2018-04-02T02:02:29.842Z,50.04
2018-04-02T02:03:29.752Z,49.66
2018-04-02T02:05:22.498Z,50.04
2018-04-02T02:06:22.432Z,49.48
2018-04-02T02:08:15.212Z,49.95
2018-04-02T02:09:15.113Z,49.57
2018-04-02T02:11:07.876Z,49.73
2018-04-02T02:12:07.795Z,50.11
2018-04-02T02:14:00.537Z,49.64
2018-04-02T02:15:00.464Z,50.21
2018-04-02T02:16:53.225Z,50.49
2018-04-02T02:17:53.142Z,50.40
2018-04-02T02:19:45.886Z,50.49
2018-04-02T02:20:45.819Z,50.59
2018-04-02T02:22:38.574Z,50.49
2018-04-02T02:23:38.493Z,50.59
2018-04-02T02:25:31.242Z,50.78
2018-04-02T02:26:31.175Z,50.78
2018-04-02T02:28:23.923Z,50.49
2018-04-02T02:29:23.842Z,50.49
2018-04-02T02:31:16.607Z,50.40
2018-04-02T02:32:16.568Z,50.21
2018-04-02T02:34:09.288Z,50.78
2018-04-02T02:35:09.216Z,51.06
2018-04-02T02:37:01.973Z,50.68
2018-04-02T02:38:01.890Z,50.96
2018-04-02T02:39:54.687Z,51.15
2018-04-02T02:40:54.622Z,51.34
2018-04-02T02:42:47.381Z,51.43
2018-04-02T02:43:47.286Z,51.43
2018-04-02T02:45:40.033Z,51.43
2018-04-02T02:46:39.964Z,51.06
2018-04-02T02:48:32.751Z,51.25
2018-04-02T02:49:32.663Z,51.34
2018-04-02T02:51:25.420Z,50.96
2018-04-02T02:52:25.347Z,50.59
2018-04-02T02:54:18.083Z,50.87
2018-04-02T02:55:18.011Z,50.78
2018-04-02T02:57:10.797Z,51.25
2018-04-02T02:58:10.727Z,51.25
2018-04-02T03:00:03.456Z,51.53
2018-04-02T03:01:03.382Z,51.53
2018-04-02T03:02:56.139Z,51.43
2018-04-02T03:03:56.056Z,52.19
2018-04-02T03:05:48.820Z,52.00
2018-04-02T03:06:48.753Z,52.19
2018-04-02T03:08:41.531Z,52.95
2018-04-02T03:09:41.455Z,52.76
2018-04-02T03:11:34.237Z,52.86
2018-04-02T03:12:34.152Z,53.33
2018-04-02T03:14:26.907Z,53.23
2018-04-02T03:15:26.836Z,52.86
2018-04-02T03:17:19.588Z,53.52
2018-04-02T03:18:19.506Z,53.61
2018-04-02T03:20:12.272Z,53.61
2018-04-02T03:21:12.200Z,53.89
2018-04-02T03:23:04.955Z,53.61
2018-04-02T03:24:04.884Z,53.70
2018-04-02T03:25:57.664Z,53.42
2018-04-02T03:26:57.590Z,53.61
2018-04-02T03:28:50.356Z,53.61
2018-04-02T03:29:50.277Z,53.42
2018-04-02T03:31:43.105Z,52.76
2018-04-02T03:32:42.985Z,52.86
2018-04-02T03:34:35.780Z,52.86
2018-04-02T03:35:35.682Z,52.76
2018-04-02T03:37:28.467Z,52.86
2018-04-02T03:38:28.388Z,52.76
2018-04-02T03:40:21.144Z,52.67
2018-04-02T03:41:21.074Z,53.05
2018-04-02T03:43:13.881Z,52.38
2018-04-02T03:44:13.800Z,52.95
2018-04-02T03:46:06.553Z,53.42
2018-04-02T03:47:06.497Z,53.42
2018-04-02T03:48:59.265Z,53.61
2018-04-02T03:49:59.183Z,54.08
2018-04-02T03:51:51.946Z,53.52
2018-04-02T03:52:51.866Z,53.70
2018-04-02T03:54:44.606Z,53.87
2018-04-02T03:55:44.538Z,54.27
2018-04-02T03:57:37.392Z,54.53
2018-04-02T03:58:37.240Z,55.03
2018-04-02T04:00:28.961Z,54.93
2018-04-02T04:01:28.894Z,55.50
2018-04-02T04:03:20.662Z,55.98
2018-04-02T04:04:20.575Z,55.88
2018-04-02T04:06:12.324Z,56.26
2018-04-02T04:07:12.238Z,56.63
2018-04-02T04:09:04.014Z,56.73
2018-04-02T04:10:03.968Z,57.11
2018-04-02T04:11:56.683Z,57.39
2018-04-02T04:12:56.605Z,57.20
2018-04-02T04:14:48.331Z,56.92
2018-04-02T04:15:48.261Z,56.92
2018-04-02T04:17:40.009Z,57.20
2018-04-02T04:18:39.928Z,57.30
2018-04-02T04:20:31.723Z,57.20
2018-04-02T04:21:31.653Z,57.39
2018-04-02T04:23:23.447Z,56.35
2018-04-02T04:24:23.338Z,56.54
2018-04-02T04:26:15.110Z,56.45
2018-04-02T04:27:15.032Z,56.35
2018-04-02T04:29:06.828Z,56.26
2018-04-02T04:30:06.752Z,56.07
2018-04-02T04:31:58.484Z,55.50
2018-04-02T04:32:58.419Z,55.41
2018-04-02T04:34:50.373Z,55.31
2018-04-02T04:35:50.080Z,54.84
2018-04-02T04:37:41.824Z,55.50
2018-04-02T04:38:41.740Z,55.69
2018-04-02T04:40:33.475Z,55.22
2018-04-02T04:41:33.398Z,55.12
2018-04-02T04:43:25.135Z,55.12
2018-04-02T04:44:25.056Z,55.12
2018-04-02T04:46:16.832Z,54.55
2018-04-02T04:47:16.760Z,55.50
2018-04-02T04:49:08.593Z,55.41
2018-04-02T04:50:08.518Z,55.31
2018-04-02T04:52:00.302Z,55.22
2018-04-02T04:53:00.245Z,54.84
2018-04-02T04:54:51.968Z,55.12
2018-04-02T04:55:51.890Z,54.84
2018-04-02T04:57:43.794Z,54.27
2018-04-02T04:58:43.652Z,54.46
2018-04-02T05:00:35.376Z,53.99
2018-04-02T05:01:35.312Z,54.27
2018-04-02T05:03:27.182Z,54.46
2018-04-02T05:04:27.104Z,54.27
2018-04-02T05:06:18.875Z,53.80
2018-04-02T05:07:18.802Z,53.70
2018-04-02T05:09:10.550Z,53.42
2018-04-02T05:10:10.471Z,53.23
2018-04-02T05:12:02.226Z,52.76
2018-04-02T05:13:02.135Z,52.10
2018-04-02T05:14:53.898Z,52.00
2018-04-02T05:15:53.815Z,51.34
2018-04-02T05:17:45.655Z,51.43
2018-04-02T05:18:45.578Z,51.25
2018-04-02T05:20:37.405Z,50.59
2018-04-02T05:21:37.295Z,50.30
2018-04-02T05:23:29.035Z,50.49
2018-04-02T05:24:28.961Z,50.21
2018-04-02T05:26:20.722Z,50.21
2018-04-02T05:27:20.627Z,49.73
2018-04-02T05:29:12.421Z,49.92
2018-04-02T05:30:12.341Z,50.02
2018-04-02T05:32:04.240Z,49.73
2018-04-02T05:33:04.028Z,50.11
2018-04-02T05:34:56.001Z,49.83
2018-04-02T05:35:55.943Z,49.73
2018-04-02T05:37:47.730Z,50.02
2018-04-02T05:38:47.628Z,50.02
2018-04-02T05:40:39.425Z,48.91
2018-04-02T05:41:39.378Z,49.19
2018-04-02T05:43:31.215Z,49.29
2018-04-02T05:44:31.085Z,49.10
2018-04-02T05:46:22.881Z,49.38
2018-04-02T05:47:22.778Z,49.29
2018-04-02T05:49:15.183Z,48.72
2018-04-02T05:50:14.690Z,49.19
2018-04-02T05:52:06.429Z,48.72
2018-04-02T05:53:06.355Z,48.63
2018-04-02T05:54:58.300Z,48.82
2018-04-02T05:55:58.215Z,48.72
2018-04-02T05:57:49.994Z,49.01
2018-04-02T05:58:49.929Z,49.19
2018-04-02T06:00:41.773Z,48.63
2018-04-02T06:01:41.699Z,48.63
2018-04-02T06:03:33.485Z,49.01
2018-04-02T06:04:33.376Z,49.01
2018-04-02T06:06:25.165Z,48.15
2018-04-02T06:07:25.125Z,48.53
2018-04-02T06:09:16.914Z,48.53
2018-04-02T06:10:16.823Z,49.10
2018-04-02T06:12:08.620Z,48.44
2018-04-02T06:13:08.551Z,48.63
2018-04-02T06:15:00.975Z,49.19
2018-04-02T06:16:00.292Z,49.19
2018-04-02T06:17:52.069Z,48.82
2018-04-02T06:18:51.999Z,48.82
2018-04-02T06:20:43.830Z,48.44
2018-04-02T06:21:43.729Z,49.10
2018-04-02T06:23:35.541Z,49.76
2018-04-02T06:24:35.501Z,48.91
2018-04-02T06:26:27.250Z,48.44
2018-04-02T06:27:27.182Z,49.19
2018-04-02T06:29:18.930Z,49.19
2018-04-02T06:30:18.851Z,49.38
2018-04-02T06:32:10.619Z,49.76
2018-04-02T06:33:10.584Z,50.33
2018-04-02T06:35:02.351Z,52.41
2018-04-02T06:36:02.273Z,52.22
2018-04-02T06:37:54.245Z,49.76
2018-04-02T06:38:54.101Z,50.04
2018-04-02T06:40:45.916Z,50.82
2018-04-02T06:41:45.831Z,50.35
2018-04-02T06:43:37.606Z,50.92
2018-04-02T06:44:37.548Z,52.44
2018-04-02T06:46:29.280Z,51.96
2018-04-02T06:47:29.247Z,51.96
2018-04-02T06:49:21.062Z,53.47
2018-04-02T06:50:20.979Z,54.52
2018-04-02T06:52:12.817Z,54.71
2018-04-02T06:53:12.762Z,55.84
2018-04-02T06:55:04.521Z,56.03
2018-04-02T06:56:04.440Z,58.21
2018-04-02T06:57:56.233Z,55.46
2018-04-02T06:58:56.164Z,57.73
2018-04-02T07:00:47.970Z,59.06
2018-04-02T07:01:47.879Z,62.56
2018-04-02T07:03:39.697Z,61.99
2018-04-02T07:04:39.629Z,62.47
2018-04-02T07:06:31.421Z,58.21
2018-04-02T07:07:31.373Z,60.29
2018-04-02T07:09:23.220Z,61.61
2018-04-02T07:10:23.136Z,60.00
2018-04-02T07:12:14.940Z,62.18
2018-04-02T07:13:14.870Z,62.37
2018-04-02T07:15:06.764Z,62.75
2018-04-02T07:16:06.717Z,61.61
2018-04-02T07:17:58.476Z,66.76
2018-04-02T07:18:58.405Z,70.83
2018-04-02T07:20:50.148Z,69.32
2018-04-02T07:21:50.069Z,67.05
2018-04-02T07:23:41.803Z,76.65
2018-04-02T07:24:41.793Z,79.11
2018-04-02T07:26:33.509Z,83.85
2018-04-02T07:27:33.433Z,79.02
2018-04-02T07:29:25.348Z,96.78
2018-04-02T07:30:25.123Z,98.58
2018-04-02T07:32:16.914Z,95.69
2018-04-02T07:33:16.923Z,95.88
2018-04-02T07:35:08.587Z,86.97
2018-04-02T07:36:08.542Z,96.08
2018-04-02T07:38:00.329Z,96.31
2018-04-02T07:39:00.265Z,99.99
2018-04-02T07:40:52.091Z,99.99
2018-04-02T07:41:51.987Z,99.99
2018-04-02T07:43:43.783Z,99.99
2018-04-02T07:44:43.711Z,99.99
2018-04-02T07:46:35.464Z,99.99
2018-04-02T07:47:35.398Z,99.99
2018-04-02T07:49:27.250Z,99.99
2018-04-02T07:50:27.177Z,99.99
2018-04-02T07:52:18.923Z,99.99
2018-04-02T07:53:18.851Z,99.99
2018-04-02T07:55:10.734Z,99.99
2018-04-02T07:56:10.660Z,99.99
2018-04-02T07:58:03.494Z,99.99
2018-04-02T07:59:03.467Z,99.99
2018-04-02T08:00:55.392Z,99.99
2018-04-02T08:01:55.298Z,99.99
2018-04-02T08:03:47.073Z,99.99
2018-04-02T08:04:46.992Z,99.99
2018-04-02T08:06:38.751Z,99.99
2018-04-02T08:07:38.678Z,99.99
2018-04-02T08:09:30.560Z,99.99
2018-04-02T08:10:30.503Z,99.99
2018-04-02T08:12:22.275Z,99.99
2018-04-02T08:13:22.226Z,99.99
2018-04-02T08:15:13.974Z,99.99
2018-04-02T08:16:13.904Z,99.99
2018-04-02T08:18:05.807Z,99.99
2018-04-02T08:19:05.697Z,99.99
2018-04-02T08:20:57.460Z,99.99
2018-04-02T08:21:57.393Z,99.99
2018-04-02T08:23:49.175Z,99.99
2018-04-02T08:24:49.158Z,99.99
2018-04-02T08:26:40.914Z,99.99
2018-04-02T08:27:40.898Z,99.99
2018-04-02T08:29:32.642Z,99.99
2018-04-02T08:30:32.570Z,99.99
2018-04-02T08:32:24.390Z,99.99
2018-04-02T08:33:24.311Z,99.99
2018-04-02T08:35:16.155Z,95.94
2018-04-02T08:36:16.087Z,92.69
2018-04-02T08:38:07.940Z,95.41
2018-04-02T08:39:07.932Z,92.03
2018-04-02T08:40:59.654Z,91.13
2018-04-02T08:41:59.579Z,99.99
2018-04-02T08:43:51.353Z,99.99
2018-04-02T08:44:51.313Z,99.99
2018-04-02T08:46:44.192Z,99.99
2018-04-02T08:47:44.123Z,99.99
2018-04-02T08:49:35.877Z,91.79
2018-04-02T08:50:35.823Z,99.99
2018-04-02T08:52:27.686Z,99.99
2018-04-02T08:53:27.624Z,99.99
2018-04-02T08:55:19.415Z,99.99
2018-04-02T08:56:19.337Z,99.99
2018-04-02T08:58:11.108Z,99.99
2018-04-02T08:59:11.046Z,93.21
2018-04-02T09:01:02.851Z,83.39
2018-04-02T09:02:02.782Z,99.99
2018-04-02T09:03:54.551Z,99.99
2018-04-02T09:04:54.488Z,99.99
2018-04-02T09:06:46.284Z,92.69
2018-04-02T09:07:46.205Z,99.99
2018-04-02T09:09:39.011Z,85.19
2018-04-02T09:10:38.964Z,91.50
2018-04-02T09:12:30.875Z,99.04
2018-04-02T09:13:30.656Z,84.14
2018-04-02T09:15:22.541Z,84.85
2018-04-02T09:16:22.456Z,95.79
2018-04-02T09:18:14.231Z,87.53
2018-04-02T09:19:14.188Z,94.74
2018-04-02T09:21:06.956Z,99.41
2018-04-02T09:22:06.891Z,99.99
2018-04-02T09:23:58.650Z,99.99
2018-04-02T09:24:58.592Z,99.99
2018-04-02T09:26:50.371Z,90.02
2018-04-02T09:27:50.302Z,84.25
2018-04-02T09:29:42.186Z,85.05
2018-04-02T09:30:42.139Z,83.76
2018-04-02T09:32:33.890Z,87.00
2018-04-02T09:33:33.798Z,74.73
2018-04-02T09:35:25.559Z,83.08
2018-04-02T09:36:25.499Z,74.24
2018-04-02T09:38:17.357Z,72.18
2018-04-02T09:39:17.296Z,86.57
2018-04-02T09:41:09.070Z,70.30
2018-04-02T09:42:09.010Z,69.89
2018-04-02T09:44:00.792Z,74.61
2018-04-02T09:45:00.737Z,72.06
2018-04-02T09:46:52.598Z,66.00
2018-04-02T09:47:52.462Z,70.01
2018-04-02T09:49:44.265Z,68.90
2018-04-02T09:50:44.209Z,65.71
2018-04-02T09:52:36.044Z,69.85
2018-04-02T09:53:35.968Z,75.24
2018-04-02T09:55:27.764Z,69.82
2018-04-02T09:56:27.710Z,65.58
2018-04-02T09:58:20.670Z,61.34
2018-04-02T09:59:20.618Z,60.23
2018-04-02T10:01:12.398Z,65.39
2018-04-02T10:02:12.318Z,60.52
2018-04-02T10:04:04.121Z,70.01
2018-04-02T10:05:04.082Z,73.44
2018-04-02T10:06:55.889Z,68.00
2018-04-02T10:07:55.856Z,68.04
2018-04-02T10:09:47.603Z,63.13
2018-04-02T10:10:47.544Z,74.24
2018-04-02T10:12:39.467Z,75.05
2018-04-02T10:13:39.354Z,62.14
2018-04-02T10:15:31.173Z,58.70
2018-04-02T10:16:31.114Z,60.13
2018-04-02T10:18:22.816Z,58.73
2018-04-02T10:19:22.751Z,58.76
2018-04-02T10:21:14.514Z,59.14
2018-04-02T10:22:14.459Z,58.47
2018-04-02T10:24:06.478Z,56.56
2018-04-02T10:25:06.351Z,55.54
2018-04-02T10:26:58.143Z,57.81
2018-04-02T10:27:58.097Z,58.07
2018-04-02T10:29:49.829Z,58.19
2018-04-02T10:30:49.752Z,59.94
2018-04-02T10:32:41.565Z,57.43
2018-04-02T10:33:41.443Z,57.33
2018-04-02T10:35:33.203Z,63.42
2018-04-02T10:36:33.145Z,58.64
2018-04-02T10:38:24.977Z,56.92
2018-04-02T10:39:24.959Z,58.29
2018-04-02T10:41:16.724Z,57.04
2018-04-02T10:42:16.624Z,56.67
2018-04-02T10:44:08.391Z,58.36
2018-04-02T10:45:08.320Z,57.31
2018-04-02T10:47:00.113Z,57.97
2018-04-02T10:48:00.032Z,61.35
2018-04-02T10:49:51.802Z,56.50
2018-04-02T10:50:51.736Z,55.30
2018-04-02T10:52:43.538Z,60.52
2018-04-02T10:53:43.470Z,57.78
2018-04-02T10:55:35.298Z,57.24
2018-04-02T10:56:35.226Z,60.30
2018-04-02T10:58:27.046Z,58.36
2018-04-02T10:59:26.951Z,57.90
2018-04-02T11:01:18.697Z,56.54
2018-04-02T11:02:18.638Z,58.16
2018-04-02T11:04:11.476Z,58.67
2018-04-02T11:05:11.343Z,61.38
2018-04-02T11:07:03.100Z,59.72
2018-04-02T11:08:03.043Z,58.41
2018-04-02T11:09:54.893Z,55.32
2018-04-02T11:10:54.803Z,55.80
2018-04-02T11:12:46.583Z,55.68
2018-04-02T11:13:46.495Z,54.29
2018-04-02T11:15:38.262Z,58.55
2018-04-02T11:16:38.188Z,60.08
2018-04-02T11:18:30.058Z,61.44
2018-04-02T11:19:29.959Z,58.61
2018-04-02T11:21:21.773Z,58.76
2018-04-02T11:22:21.685Z,58.03
2018-04-02T11:24:13.529Z,54.02
2018-04-02T11:25:13.474Z,54.11
2018-04-02T11:27:05.388Z,54.30
2018-04-02T11:28:05.228Z,52.87
2018-04-02T11:29:57.032Z,50.04
2018-04-02T11:30:56.922Z,53.86
2018-04-02T11:32:48.737Z,57.65
2018-04-02T11:33:48.682Z,58.51
2018-04-02T11:35:40.615Z,57.63
2018-04-02T11:36:40.600Z,60.75
2018-04-02T11:38:32.478Z,61.66
2018-04-02T11:39:32.372Z,56.77
2018-04-02T11:41:24.151Z,60.46
2018-04-02T11:42:24.103Z,58.77
2018-04-02T11:44:15.851Z,63.70
2018-04-02T11:45:15.791Z,65.86
2018-04-02T11:47:07.553Z,68.63
2018-04-02T11:48:07.532Z,63.86
2018-04-02T11:49:59.250Z,67.00
2018-04-02T11:50:59.213Z,68.91
2018-04-02T11:52:51.006Z,65.10
2018-04-02T11:53:50.948Z,69.01
2018-04-02T11:55:42.833Z,68.05
2018-04-02T11:56:42.703Z,67.58
2018-04-02T11:58:34.491Z,66.44
2018-04-02T11:59:34.416Z,75.16
2018-04-02T12:01:26.203Z,64.12
2018-04-02T12:02:26.133Z,68.21
2018-04-02T12:04:17.959Z,75.36
2018-04-02T12:05:17.897Z,72.97
2018-04-02T12:07:09.824Z,76.94
2018-04-02T12:08:09.696Z,79.55
2018-04-02T12:10:02.496Z,72.21
2018-04-02T12:11:02.441Z,72.31
2018-04-02T12:12:54.200Z,67.93
2018-04-02T12:13:54.125Z,64.24
2018-04-02T12:15:45.959Z,64.15
2018-04-02T12:16:45.925Z,62.34
2018-04-02T12:18:37.694Z,63.73
2018-04-02T12:19:37.618Z,69.93
2018-04-02T12:21:29.545Z,62.59
2018-04-02T12:22:29.517Z,63.92
2018-04-02T12:24:21.249Z,69.35
2018-04-02T12:25:21.190Z,73.45
2018-04-02T12:27:13.086Z,63.54
2018-04-02T12:28:12.905Z,67.35
2018-04-02T12:30:04.844Z,71.39
2018-04-02T12:31:04.685Z,63.67
2018-04-02T12:32:56.535Z,64.12
2018-04-02T12:33:56.462Z,62.49
2018-04-02T12:35:48.272Z,66.75
2018-04-02T12:36:48.188Z,67.61
2018-04-02T12:38:40.020Z,79.17
2018-04-02T12:39:39.941Z,75.36
2018-04-02T12:41:31.774Z,73.83
2018-04-02T12:42:31.706Z,81.26
2018-04-02T12:44:23.509Z,70.97
2018-04-02T12:45:23.374Z,71.70
2018-04-02T12:47:15.170Z,79.03
2018-04-02T12:48:15.047Z,75.84
2018-04-02T12:50:06.816Z,78.27
2018-04-02T12:51:06.768Z,71.13
2018-04-02T12:52:58.605Z,76.23
2018-04-02T12:53:58.536Z,75.28
2018-04-02T12:55:50.415Z,68.90
2018-04-02T12:56:50.297Z,80.71
2018-04-02T12:58:42.054Z,70.62
2018-04-02T12:59:41.981Z,73.38
2018-04-02T13:01:33.887Z,76.52
2018-04-02T13:02:33.701Z,75.32
2018-04-02T13:04:25.545Z,73.61
2018-04-02T13:05:25.477Z,72.27
2018-04-02T13:07:17.199Z,74.27
2018-04-02T13:08:17.120Z,67.22
2018-04-02T13:10:08.867Z,67.32
2018-04-02T13:11:08.862Z,67.89
2018-04-02T13:13:00.639Z,68.27
2018-04-02T13:14:00.576Z,65.61
2018-04-02T13:15:52.316Z,68.46
2018-04-02T13:16:52.253Z,64.65
2018-04-02T13:18:44.171Z,64.87
2018-04-02T13:19:44.060Z,65.92
2018-04-02T13:21:35.912Z,70.40
2018-04-02T13:22:35.844Z,66.69
2018-04-02T13:24:27.604Z,62.68
2018-04-02T13:25:27.532Z,69.07
2018-04-02T13:27:19.324Z,64.40
2018-04-02T13:28:19.265Z,65.64
2018-04-02T13:30:11.116Z,62.21
2018-04-02T13:31:10.982Z,59.16
2018-04-02T13:33:02.748Z,64.37
2018-04-02T13:34:02.675Z,65.03
2018-04-02T13:35:54.479Z,63.04
2018-04-02T13:36:54.422Z,66.21
2018-04-02T13:38:46.209Z,68.50
2018-04-02T13:39:46.176Z,65.36
2018-04-02T13:41:37.890Z,69.45
2018-04-02T13:42:37.823Z,68.12
2018-04-02T13:44:29.608Z,64.50
2018-04-02T13:45:29.515Z,65.73
2018-04-02T13:47:21.357Z,66.97
2018-04-02T13:48:21.340Z,66.69
2018-04-02T13:50:13.062Z,65.45
2018-04-02T13:51:12.984Z,70.50
2018-04-02T13:53:04.729Z,64.02
2018-04-02T13:54:04.674Z,64.59
2018-04-02T13:55:56.413Z,62.30
2018-04-02T13:56:56.373Z,63.70
2018-04-02T13:58:48.101Z,64.75
2018-04-02T13:59:48.029Z,67.61
2018-04-02T14:01:39.797Z,70.50
2018-04-02T14:02:39.734Z,66.40
2018-04-02T14:04:31.568Z,71.36
2018-04-02T14:05:31.493Z,66.50
2018-04-02T14:07:23.300Z,60.94
2018-04-02T14:08:23.233Z,61.22
2018-04-02T14:10:15.026Z,62.27
2018-04-02T14:11:14.960Z,62.94
2018-04-02T14:13:06.785Z,64.37
2018-04-02T14:14:06.715Z,62.56
2018-04-02T14:15:58.532Z,67.03
2018-04-02T14:16:58.460Z,65.70
2018-04-02T14:18:50.307Z,64.18
2018-04-02T14:19:50.234Z,65.03
2018-04-02T14:21:42.004Z,74.69
2018-04-02T14:22:41.933Z,67.55
2018-04-02T14:24:33.755Z,65.16
2018-04-02T14:25:33.637Z,64.84
2018-04-02T14:27:25.504Z,68.88
2018-04-02T14:28:25.362Z,63.73
2018-04-02T14:30:17.118Z,65.36
2018-04-02T14:31:17.046Z,63.73
2018-04-02T14:33:08.895Z,63.17
2018-04-02T14:34:08.827Z,63.73
2018-04-02T14:36:00.589Z,65.55
2018-04-02T14:37:00.517Z,67.45
2018-04-02T14:38:53.355Z,68.88
2018-04-02T14:39:53.331Z,66.02
2018-04-02T14:41:45.033Z,63.60
2018-04-02T14:42:44.962Z,66.21
2018-04-02T14:44:36.735Z,66.18
2018-04-02T14:45:36.638Z,62.56
2018-04-02T14:47:28.382Z,68.40
2018-04-02T14:48:28.316Z,73.07
2018-04-02T14:50:20.195Z,75.07
2018-04-02T14:51:20.034Z,66.59
2018-04-02T14:53:11.907Z,64.21
2018-04-02T14:54:11.764Z,67.93
2018-04-02T14:56:03.578Z,64.69
2018-04-02T14:57:03.498Z,65.61
2018-04-02T14:58:55.239Z,71.42
2018-04-02T14:59:55.175Z,69.79
2018-04-02T15:01:47.057Z,71.51
2018-04-02T15:02:46.946Z,68.78
2018-04-02T15:04:38.739Z,64.40
2018-04-02T15:05:38.665Z,70.12
2018-04-02T15:07:30.435Z,63.83
2018-04-02T15:08:30.351Z,67.45
2018-04-02T15:10:22.130Z,65.07
2018-04-02T15:11:22.052Z,73.55
2018-04-02T15:13:13.791Z,71.93
2018-04-02T15:14:13.726Z,65.36
2018-04-02T15:16:05.480Z,65.07
2018-04-02T15:17:05.434Z,65.92
2018-04-02T15:18:57.160Z,77.61
2018-04-02T15:19:57.094Z,70.65
2018-04-02T15:21:48.848Z,69.23
2018-04-02T15:22:48.814Z,71.32
2018-04-02T15:24:40.612Z,71.38
2018-04-02T15:25:40.547Z,70.33
2018-04-02T15:27:32.462Z,66.72
2018-04-02T15:28:32.327Z,75.09
2018-04-02T15:30:24.172Z,77.66
2018-04-02T15:31:24.109Z,71.57
2018-04-02T15:33:15.838Z,81.41
2018-04-02T15:34:15.801Z,83.80
2018-04-02T15:36:07.536Z,72.37
2018-04-02T15:37:07.456Z,66.08
2018-04-02T15:38:59.257Z,70.84
2018-04-02T15:39:59.206Z,66.56
2018-04-02T15:41:51.097Z,69.70
2018-04-02T15:42:51.014Z,67.22
2018-04-02T15:44:42.894Z,71.70
2018-04-02T15:45:42.834Z,67.83
2018-04-02T15:47:34.708Z,67.13
2018-04-02T15:48:34.718Z,64.97
2018-04-02T15:50:26.393Z,63.64
2018-04-02T15:51:26.313Z,63.54
2018-04-02T15:53:18.152Z,65.36
2018-04-02T15:54:18.030Z,65.73
2018-04-02T15:56:09.857Z,67.07
2018-04-02T15:57:09.780Z,63.83
2018-04-02T15:59:01.638Z,64.56
2018-04-02T16:00:01.572Z,66.56
2018-04-02T16:01:53.354Z,69.04
2018-04-02T16:02:53.260Z,64.84
2018-04-02T16:04:44.996Z,81.70
2018-04-02T16:05:44.936Z,71.80
2018-04-02T16:07:36.810Z,69.70
2018-04-02T16:08:36.733Z,68.18
2018-04-02T16:10:28.520Z,71.13
2018-04-02T16:11:28.457Z,72.94
2018-04-02T16:13:20.246Z,66.18
2018-04-02T16:14:20.208Z,65.80
2018-04-02T16:16:12.018Z,66.08
2018-04-02T16:17:11.908Z,72.46
2018-04-02T16:19:03.802Z,67.41
2018-04-02T16:20:03.695Z,75.13
2018-04-02T16:21:55.479Z,69.60
2018-04-02T16:22:55.409Z,75.23
2018-04-02T16:24:47.144Z,85.41
2018-04-02T16:25:47.082Z,82.70
2018-04-02T16:27:38.935Z,80.61
2018-04-02T16:28:38.794Z,76.08
2018-04-02T16:30:30.705Z,73.47
2018-04-02T16:31:30.682Z,74.18
2018-04-02T16:33:22.467Z,78.71
2018-04-02T16:34:22.361Z,76.23
2018-04-02T16:36:14.151Z,81.28
2018-04-02T16:37:14.127Z,84.80
2018-04-02T16:39:05.880Z,88.13
2018-04-02T16:40:05.859Z,82.04
2018-04-02T16:41:57.597Z,81.56
2018-04-02T16:42:57.512Z,79.47
2018-04-02T16:44:49.437Z,85.56
2018-04-02T16:45:49.397Z,83.37
2018-04-02T16:47:41.243Z,77.76
2018-04-02T16:48:41.114Z,88.32
2018-04-02T16:50:33.007Z,91.08
2018-04-02T16:51:32.922Z,92.89
2018-04-02T16:53:24.722Z,92.99
2018-04-02T16:54:24.652Z,96.98
2018-04-02T16:56:16.571Z,79.66
2018-04-02T16:57:16.487Z,89.18
2018-04-02T16:59:08.414Z,85.37
2018-04-02T17:00:08.342Z,87.65
2018-04-02T17:02:00.116Z,83.65
2018-04-02T17:03:00.039Z,94.03
2018-04-02T17:04:51.816Z,85.37
2018-04-02T17:05:51.753Z,88.04
2018-04-02T17:07:43.520Z,88.37
2018-04-02T17:08:43.445Z,89.14
2018-04-02T17:10:35.383Z,86.57
2018-04-02T17:11:35.336Z,93.89
2018-04-02T17:13:27.121Z,86.47
2018-04-02T17:14:26.972Z,88.28
2018-04-02T17:16:18.721Z,85.14
2018-04-02T17:17:18.686Z,92.84
2018-04-02T17:19:10.488Z,88.28
2018-04-02T17:20:10.454Z,85.52
2018-04-02T17:22:02.168Z,85.24
2018-04-02T17:23:02.107Z,87.99
2018-04-02T17:24:53.910Z,91.13
2018-04-02T17:25:53.831Z,89.23
2018-04-02T17:27:45.769Z,95.60
2018-04-02T17:28:45.573Z,95.32
2018-04-02T17:30:37.311Z,96.94
2018-04-02T17:31:37.259Z,89.32
2018-04-02T17:33:29.673Z,84.19
2018-04-02T17:34:28.997Z,86.94
2018-04-02T17:36:20.739Z,91.99
2018-04-02T17:37:20.671Z,96.65
2018-04-02T17:39:12.428Z,99.12
2018-04-02T17:40:12.353Z,98.55
2018-04-02T17:42:04.153Z,99.99
2018-04-02T17:43:04.095Z,96.46
2018-04-02T17:44:55.904Z,94.56
2018-04-02T17:45:55.798Z,95.32
2018-04-02T17:47:47.540Z,90.89
2018-04-02T17:48:47.490Z,93.75
2018-04-02T17:50:39.409Z,90.56
2018-04-02T17:51:39.440Z,95.94
2018-04-02T17:53:31.117Z,99.99
2018-04-02T17:54:31.022Z,99.99
2018-04-02T17:56:22.809Z,99.99
2018-04-02T17:57:22.748Z,99.99
2018-04-02T17:59:14.584Z,99.99
2018-04-02T18:00:14.490Z,99.99
2018-04-02T18:02:06.301Z,99.99
2018-04-02T18:03:06.204Z,99.99
2018-04-02T18:04:57.960Z,99.99
2018-04-02T18:05:57.882Z,99.99
2018-04-02T18:07:49.728Z,99.99
2018-04-02T18:08:49.683Z,99.99
2018-04-02T18:10:41.410Z,99.99
2018-04-02T18:11:41.376Z,99.99
2018-04-02T18:13:33.120Z,99.99
2018-04-02T18:14:33.048Z,99.99
2018-04-02T18:16:24.804Z,99.99
2018-04-02T18:17:24.746Z,99.99
2018-04-02T18:19:16.595Z,99.99
2018-04-02T18:20:16.516Z,99.99
2018-04-02T18:22:08.306Z,99.99
2018-04-02T18:23:08.243Z,99.99
2018-04-02T18:24:59.993Z,99.99
2018-04-02T18:25:59.929Z,99.99
2018-04-02T18:27:51.667Z,99.99